KFEW/FEW METAR and TAF weather

Enter ICAO airport designator
Station Type Date Time Source
KFEW METAR 2020/10/20 16:58 UTC NOAA

KFEW 201658Z 29022G24KT 10SM SCT080 BKN200 17/M04 A3001 RMK AO2A PK WND 30027/29 SLP117 T01651045 $


Station Type Date Time Source
KFEW Decoded METAR 2020/10/20 16:58 UTC NOAA

Station name not available
Oct 20, 2020 - 12:58 PM EDT / 2020.10.20 1658 UTC
Wind: from the WNW (290 degrees) at 25 MPH (22 KT) gusting to 28 MPH (24 KT):0
Visibility: 10 mile(s):0
Sky conditions: mostly cloudy
Temperature: 61.7 F (16.5 C)
Dew Point: 23.9 F (-4.5 C)
Relative Humidity: 23%
Pressure (altimeter): 30.01 in. Hg (1016 hPa)
ob: KFEW 201658Z 29022G24KT 10SM SCT080 BKN200 17/M04 A3001 RMK AO2A PK WND 30027/29 SLP117 T01651045
cycle: 17

Station Type Date Time Source
KFEW TAF UTC NOAA

Error!

Example: see airport list